createdAt,value
2022-09-14T03:01:28.471Z,11.35
2022-09-14T03:03:55.251Z,11.34
2022-09-14T03:06:22.598Z,11.33
2022-09-14T03:08:50.275Z,11.35
2022-09-14T03:11:17.015Z,11.32
2022-09-14T03:13:44.036Z,11.27
2022-09-14T03:16:17.323Z,11.29
2022-09-14T03:18:44.296Z,11.29
2022-09-14T03:21:13.519Z,11.26
2022-09-14T03:23:45.149Z,11.21
2022-09-14T03:26:17.716Z,11.20
2022-09-14T03:28:45.179Z,11.19
2022-09-14T03:31:13.233Z,11.20
2022-09-14T03:33:40.475Z,11.22
2022-09-14T03:36:19.055Z,11.29
2022-09-14T03:38:47.475Z,11.35
2022-09-14T03:41:15.199Z,11.39
2022-09-14T03:43:43.439Z,11.45
2022-09-14T03:46:13.036Z,11.53
2022-09-14T03:48:40.328Z,11.58
2022-09-14T03:51:09.218Z,11.64
2022-09-14T03:53:36.664Z,11.65
2022-09-14T03:56:11.625Z,11.65
2022-09-14T03:58:38.568Z,11.68
2022-09-14T04:01:07.210Z,11.72
2022-09-14T04:03:35.805Z,11.75
2022-09-14T04:06:05.502Z,11.78
2022-09-14T04:08:37.479Z,11.83
2022-09-14T04:11:19.441Z,11.85
2022-09-14T04:13:48.366Z,11.90
2022-09-14T04:16:15.810Z,11.94
2022-09-14T04:18:42.835Z,11.93
2022-09-14T04:21:15.934Z,11.95
2022-09-14T04:24:19.283Z,11.98
2022-09-14T04:26:32.593Z,11.99
2022-09-14T04:28:59.703Z,12.01
2022-09-14T04:31:26.592Z,12.03
2022-09-14T04:33:56.330Z,12.04
2022-09-14T04:36:30.912Z,12.01
2022-09-14T04:39:00.079Z,12.04
2022-09-14T04:41:27.796Z,12.06
2022-09-14T04:43:55.974Z,12.05
2022-09-14T04:46:30.450Z,12.01
2022-09-14T04:48:57.805Z,11.99
2022-09-14T04:51:27.352Z,12.02
2022-09-14T04:53:56.509Z,12.05
2022-09-14T04:56:24.667Z,12.05
2022-09-14T04:58:58.679Z,12.06
2022-09-14T05:01:28.741Z,12.06
2022-09-14T05:03:56.037Z,12.06
2022-09-14T05:06:25.720Z,12.06
2022-09-14T05:08:53.325Z,12.08
2022-09-14T05:11:25.505Z,12.06
2022-09-14T05:13:52.276Z,12.04
2022-09-14T05:16:21.866Z,12.05
2022-09-14T05:18:49.798Z,12.07
2022-09-14T05:21:18.922Z,12.08
2022-09-14T05:23:46.667Z,12.08
2022-09-14T05:26:14.290Z,12.09
2022-09-14T05:28:41.335Z,12.09
2022-09-14T05:31:10.199Z,12.10
2022-09-14T05:33:37.135Z,12.08
2022-09-14T05:36:06.105Z,12.05
2022-09-14T05:38:35.097Z,12.04
2022-09-14T05:41:02.304Z,12.05
2022-09-14T05:43:30.724Z,12.06
2022-09-14T05:46:02.542Z,12.10
2022-09-14T05:48:36.291Z,12.12
2022-09-14T05:51:10.261Z,12.13
2022-09-14T05:53:36.996Z,12.14
2022-09-14T05:56:09.331Z,12.15
2022-09-14T05:58:37.412Z,12.17
2022-09-14T06:01:07.857Z,12.19
2022-09-14T06:03:34.713Z,12.19
2022-09-14T06:06:01.923Z,12.19
2022-09-14T06:08:29.094Z,12.20
2022-09-14T06:10:55.721Z,12.19
2022-09-14T06:13:23.466Z,12.15
2022-09-14T06:15:50.296Z,12.15
2022-09-14T06:18:17.271Z,12.19
2022-09-14T06:20:52.230Z,12.20
2022-09-14T06:23:19.036Z,12.22
2022-09-14T06:25:45.928Z,12.23
2022-09-14T06:28:12.864Z,12.21
2022-09-14T06:30:44.046Z,12.21
2022-09-14T06:33:10.812Z,12.20
2022-09-14T06:35:37.409Z,12.19
2022-09-14T06:38:04.160Z,12.16
2022-09-14T06:40:30.892Z,12.17
2022-09-14T06:43:02.154Z,12.17
2022-09-14T06:45:36.788Z,12.17
2022-09-14T06:48:03.395Z,12.19
2022-09-14T06:50:29.967Z,12.21
2022-09-14T06:52:56.565Z,12.22
2022-09-14T06:55:23.131Z,12.25
2022-09-14T06:57:49.741Z,12.29
2022-09-14T07:00:16.833Z,12.31
2022-09-14T07:02:43.803Z,12.31
2022-09-14T07:05:10.656Z,12.28
2022-09-14T07:07:37.253Z,12.25
2022-09-14T07:10:04.192Z,12.27
2022-09-14T07:12:30.781Z,12.28
2022-09-14T07:14:57.591Z,12.31
2022-09-14T07:17:24.225Z,12.34
2022-09-14T07:19:51.856Z,12.39
2022-09-14T07:22:18.467Z,12.41
2022-09-14T07:24:45.096Z,12.44
2022-09-14T07:27:11.711Z,12.51
2022-09-14T07:29:38.595Z,12.56
2022-09-14T07:32:05.424Z,12.61
2022-09-14T07:34:32.648Z,12.66
2022-09-14T07:36:59.535Z,12.67
2022-09-14T07:39:26.297Z,12.66
2022-09-14T07:41:53.227Z,12.66
2022-09-14T07:44:19.823Z,12.65
2022-09-14T07:46:47.181Z,12.65
2022-09-14T07:49:15.592Z,12.67
2022-09-14T07:51:42.717Z,12.69
2022-09-14T07:54:12.431Z,12.70
2022-09-14T07:56:39.869Z,12.71
2022-09-14T07:59:31.307Z,12.77
2022-09-14T08:01:53.440Z,12.82
2022-09-14T08:04:20.867Z,12.86
2022-09-14T08:06:47.516Z,12.86
2022-09-14T08:09:14.360Z,12.86
2022-09-14T08:11:40.984Z,12.90
2022-09-14T08:14:10.378Z,12.95
2022-09-14T08:16:41.360Z,12.97
2022-09-14T08:19:12.847Z,12.99
2022-09-14T08:21:44.113Z,13.01
2022-09-14T08:24:18.865Z,13.06
2022-09-14T08:26:46.958Z,13.08
2022-09-14T08:29:15.248Z,13.08
2022-09-14T08:31:43.333Z,13.08
2022-09-14T08:34:10.219Z,13.14
2022-09-14T08:36:39.263Z,13.19
2022-09-14T08:39:10.535Z,13.26
2022-09-14T08:41:53.477Z,13.38
2022-09-14T08:44:37.105Z,13.49
2022-09-14T08:47:32.347Z,13.58
2022-09-14T08:49:58.883Z,13.59
2022-09-14T08:52:34.411Z,13.68
2022-09-14T08:55:12.171Z,13.76
2022-09-14T08:57:44.924Z,13.79
2022-09-14T09:00:17.704Z,13.85
2022-09-14T09:03:00.649Z,13.84
2022-09-14T09:05:42.072Z,13.83
2022-09-14T09:08:36.697Z,13.87
2022-09-14T09:11:07.277Z,13.94
2022-09-14T09:13:38.352Z,14.11
2022-09-14T09:16:09.306Z,14.27
2022-09-14T09:18:49.769Z,14.28
2022-09-14T09:21:28.825Z,14.27
2022-09-14T09:24:09.552Z,14.35
2022-09-14T09:26:36.169Z,14.40
2022-09-14T09:29:05.840Z,14.37
2022-09-14T09:31:43.784Z,14.42
2022-09-14T09:34:16.324Z,14.50
2022-09-14T09:36:47.925Z,14.53
2022-09-14T09:39:15.733Z,14.52
2022-09-14T09:41:51.068Z,14.54
2022-09-14T09:44:17.716Z,14.60
2022-09-14T09:46:51.850Z,14.73
2022-09-14T09:49:24.431Z,14.81
2022-09-14T09:51:52.496Z,14.90
2022-09-14T09:54:29.949Z,14.93
2022-09-14T09:57:03.088Z,14.85
2022-09-14T09:59:39.590Z,14.78
2022-09-14T10:02:32.046Z,14.72
2022-09-14T10:05:07.224Z,14.69
2022-09-14T10:07:40.515Z,14.76
2022-09-14T10:10:13.732Z,14.80
2022-09-14T10:12:47.642Z,14.79
2022-09-14T10:15:22.911Z,14.79
2022-09-14T10:18:01.612Z,14.81
2022-09-14T10:20:28.384Z,14.81
2022-09-14T10:22:55.028Z,14.84
2022-09-14T10:25:26.368Z,14.83
2022-09-14T10:27:56.104Z,14.88
2022-09-14T10:30:25.502Z,14.85
2022-09-14T10:33:02.334Z,14.83
2022-09-14T10:35:41.409Z,14.87
2022-09-14T10:38:17.725Z,15.01
2022-09-14T10:40:52.656Z,15.11
2022-09-14T10:44:00.479Z,15.25
2022-09-14T10:46:34.580Z,15.33
2022-09-14T10:49:37.925Z,15.37
2022-09-14T10:52:19.615Z,15.33
2022-09-14T10:55:19.953Z,15.29
2022-09-14T10:58:07.411Z,15.35
2022-09-14T11:00:46.184Z,15.40
2022-09-14T11:03:28.400Z,15.49
2022-09-14T11:06:29.007Z,15.49
2022-09-14T11:09:02.687Z,15.45
2022-09-14T11:12:11.055Z,15.45
2022-09-14T11:14:43.828Z,15.44
2022-09-14T11:17:23.799Z,15.39
2022-09-14T11:20:12.053Z,15.27
2022-09-14T11:22:50.379Z,15.17
2022-09-14T11:25:40.880Z,15.19
2022-09-14T11:28:16.172Z,15.19
2022-09-14T11:30:50.187Z,15.19
2022-09-14T11:33:31.521Z,15.25
2022-09-14T11:36:07.344Z,15.31
2022-09-14T11:38:46.593Z,15.39
2022-09-14T11:41:20.169Z,15.43
2022-09-14T11:44:00.063Z,15.44
2022-09-14T11:46:31.957Z,15.43
2022-09-14T11:49:17.258Z,15.39
2022-09-14T11:51:51.562Z,15.39
2022-09-14T11:54:21.333Z,15.41
2022-09-14T11:57:01.192Z,15.43
2022-09-14T11:59:50.410Z,15.54
2022-09-14T12:02:23.194Z,15.74
2022-09-14T12:05:05.375Z,16.02
2022-09-14T12:07:45.512Z,16.17
2022-09-14T12:10:18.001Z,16.22
2022-09-14T12:13:05.896Z,16.27
2022-09-14T12:15:35.767Z,16.28
2022-09-14T12:18:05.201Z,16.25
2022-09-14T12:20:37.749Z,16.24
2022-09-14T12:23:20.709Z,16.35
2022-09-14T12:26:06.129Z,16.51
2022-09-14T12:28:35.564Z,16.61
2022-09-14T12:31:05.177Z,16.65
2022-09-14T12:33:32.091Z,16.61
2022-09-14T12:36:05.523Z,16.60
2022-09-14T12:38:32.353Z,16.58
2022-09-14T12:41:02.594Z,16.58
2022-09-14T12:43:35.151Z,16.55
2022-09-14T12:46:10.908Z,16.53
2022-09-14T12:48:47.965Z,16.48
2022-09-14T12:51:14.503Z,16.34
2022-09-14T12:53:43.836Z,16.22
2022-09-14T12:56:22.293Z,16.27
2022-09-14T12:58:59.886Z,16.45
2022-09-14T13:01:37.587Z,16.60
2022-09-14T13:04:15.389Z,16.73
2022-09-14T13:06:47.692Z,16.85
2022-09-14T13:09:21.939Z,16.85
2022-09-14T13:11:58.339Z,16.79
2022-09-14T13:14:32.022Z,16.79
2022-09-14T13:17:04.614Z,16.79
2022-09-14T13:19:34.291Z,16.84
2022-09-14T13:22:02.485Z,16.87
2022-09-14T13:24:31.313Z,16.93
2022-09-14T13:27:01.010Z,16.97
2022-09-14T13:29:28.609Z,17.00
2022-09-14T13:32:03.002Z,17.01
2022-09-14T13:34:34.764Z,16.95
2022-09-14T13:37:02.658Z,16.92
2022-09-14T13:39:34.614Z,16.87
2022-09-14T13:42:04.016Z,16.83
2022-09-14T13:44:45.450Z,16.85
2022-09-14T13:47:15.636Z,16.90
2022-09-14T13:49:44.292Z,16.96
2022-09-14T13:52:25.915Z,17.01
2022-09-14T13:55:23.729Z,17.02
2022-09-14T13:58:09.416Z,17.07
2022-09-14T14:00:57.213Z,17.10
2022-09-14T14:03:28.694Z,17.15
2022-09-14T14:05:55.759Z,17.15
2022-09-14T14:08:35.532Z,17.15
2022-09-14T14:11:05.975Z,17.18
2022-09-14T14:13:35.772Z,17.17
2022-09-14T14:16:26.618Z,17.12
2022-09-14T14:18:55.015Z,16.99
2022-09-14T14:21:21.686Z,16.90
2022-09-14T14:24:12.207Z,16.82
2022-09-14T14:26:47.231Z,16.87
2022-09-14T14:29:16.235Z,17.07
2022-09-14T14:31:43.096Z,17.17
2022-09-14T14:34:23.068Z,17.36
2022-09-14T14:36:50.504Z,17.50
2022-09-14T14:39:19.760Z,17.54
2022-09-14T14:41:47.694Z,17.48
2022-09-14T14:44:28.237Z,17.44
2022-09-14T14:46:56.503Z,17.41
2022-09-14T14:49:23.882Z,17.41
2022-09-14T14:51:50.564Z,17.44
2022-09-14T14:54:18.808Z,17.50
2022-09-14T14:56:50.749Z,17.59
2022-09-14T14:59:20.304Z,17.68
2022-09-14T15:01:51.175Z,17.72
2022-09-14T15:04:18.842Z,17.70
2022-09-14T15:06:47.301Z,17.68
2022-09-14T15:09:25.467Z,17.66
2022-09-14T15:11:54.495Z,17.71
2022-09-14T15:14:28.425Z,17.77
2022-09-14T15:16:59.937Z,17.77
2022-09-14T15:19:27.004Z,17.71
2022-09-14T15:21:57.282Z,17.71
2022-09-14T15:24:26.967Z,17.70
2022-09-14T15:26:54.376Z,17.68
2022-09-14T15:29:21.035Z,17.59
2022-09-14T15:31:47.830Z,17.52
2022-09-14T15:34:14.569Z,17.48
2022-09-14T15:36:47.759Z,17.48
2022-09-14T15:39:15.104Z,17.51
2022-09-14T15:41:42.539Z,17.53
2022-09-14T15:44:09.615Z,17.53
2022-09-14T15:46:36.600Z,17.53
2022-09-14T15:49:13.332Z,17.48
2022-09-14T15:51:43.715Z,17.40
2022-09-14T15:54:11.082Z,17.40
2022-09-14T15:56:37.965Z,17.36
2022-09-14T15:59:05.308Z,17.40
2022-09-14T16:01:32.482Z,17.38
2022-09-14T16:04:01.368Z,17.37
2022-09-14T16:06:29.022Z,17.35
2022-09-14T16:08:55.909Z,17.34
2022-09-14T16:11:23.906Z,17.31
2022-09-14T16:13:51.317Z,17.24
2022-09-14T16:16:20.374Z,17.22
2022-09-14T16:18:49.870Z,17.17
2022-09-14T16:21:22.717Z,17.11
2022-09-14T16:23:59.552Z,17.00
2022-09-14T16:26:32.302Z,16.91
2022-09-14T16:28:59.394Z,16.85
2022-09-14T16:31:32.970Z,16.84
2022-09-14T16:34:06.098Z,16.83
2022-09-14T16:36:35.148Z,16.78
2022-09-14T16:39:09.460Z,16.77
2022-09-14T16:41:38.151Z,16.77
2022-09-14T16:44:05.618Z,16.76
2022-09-14T16:46:33.548Z,16.76
2022-09-14T16:49:00.497Z,16.74
2022-09-14T16:51:30.337Z,16.72
2022-09-14T16:53:59.035Z,16.72
2022-09-14T16:56:28.349Z,16.71
2022-09-14T16:58:56.160Z,16.70
2022-09-14T17:01:25.551Z,16.69
2022-09-14T17:03:55.327Z,16.67
2022-09-14T17:06:29.324Z,16.66
2022-09-14T17:09:02.611Z,16.60
2022-09-14T17:11:31.892Z,16.58
2022-09-14T17:13:58.934Z,16.58
2022-09-14T17:16:27.546Z,16.57
2022-09-14T17:18:57.806Z,16.50
2022-09-14T17:21:27.615Z,16.47
2022-09-14T17:23:54.547Z,16.44
2022-09-14T17:26:22.674Z,16.38
2022-09-14T17:28:51.509Z,16.35
2022-09-14T17:31:23.359Z,16.34
2022-09-14T17:33:50.105Z,16.27
2022-09-14T17:36:18.025Z,16.25
2022-09-14T17:38:45.394Z,16.22
2022-09-14T17:41:18.549Z,16.18
2022-09-14T17:43:49.757Z,16.13
2022-09-14T17:46:17.420Z,16.08
2022-09-14T17:48:44.082Z,16.01
2022-09-14T17:51:14.524Z,15.97
2022-09-14T17:53:43.588Z,15.93
2022-09-14T17:56:12.190Z,15.90
2022-09-14T17:58:39.663Z,15.88
2022-09-14T18:01:24.673Z,15.84
2022-09-14T18:03:54.268Z,15.82
2022-09-14T18:06:23.854Z,15.82
2022-09-14T18:08:55.689Z,15.79
2022-09-14T18:11:22.929Z,15.76
2022-09-14T18:13:51.217Z,15.74
2022-09-14T18:16:19.853Z,15.73
2022-09-14T18:18:46.978Z,15.72
2022-09-14T18:21:15.002Z,15.68
2022-09-14T18:23:43.671Z,15.65
2022-09-14T18:26:10.352Z,15.62
2022-09-14T18:28:37.058Z,15.59
2022-09-14T18:31:09.991Z,15.58
2022-09-14T18:33:37.888Z,15.55
2022-09-14T18:36:06.256Z,15.57
2022-09-14T18:38:33.295Z,15.55
2022-09-14T18:41:04.977Z,15.55
2022-09-14T18:43:31.767Z,15.53
2022-09-14T18:45:58.705Z,15.54
2022-09-14T18:48:25.389Z,15.53
2022-09-14T18:50:52.042Z,15.53
2022-09-14T18:53:18.944Z,15.51
2022-09-14T18:55:46.286Z,15.51
2022-09-14T18:58:12.915Z,15.51
2022-09-14T19:00:45.904Z,15.50
2022-09-14T19:03:12.964Z,15.46
2022-09-14T19:05:43.880Z,15.46
2022-09-14T19:08:13.568Z,15.43
2022-09-14T19:10:40.328Z,15.40
2022-09-14T19:13:07.394Z,15.40
2022-09-14T19:15:34.194Z,15.40
2022-09-14T19:18:00.945Z,15.41
2022-09-14T19:20:43.191Z,15.41
2022-09-14T19:23:14.172Z,15.38
2022-09-14T19:25:40.838Z,15.36
2022-09-14T19:28:07.848Z,15.34
2022-09-14T19:30:36.444Z,15.32
2022-09-14T19:33:03.120Z,15.27
2022-09-14T19:35:30.460Z,15.22
2022-09-14T19:37:58.233Z,15.20
2022-09-14T19:40:24.959Z,15.13
2022-09-14T19:42:52.021Z,15.09
2022-09-14T19:45:19.411Z,15.02
2022-09-14T19:47:46.067Z,14.96
2022-09-14T19:50:12.727Z,14.88
2022-09-14T19:52:39.512Z,14.84
2022-09-14T19:55:06.514Z,14.78
2022-09-14T19:57:34.226Z,14.72
2022-09-14T20:00:01.087Z,14.65
2022-09-14T20:02:28.141Z,14.58
2022-09-14T20:04:55.413Z,14.54
2022-09-14T20:07:22.026Z,14.50
2022-09-14T20:09:48.838Z,14.44
2022-09-14T20:12:15.764Z,14.40
2022-09-14T20:14:42.566Z,14.36
2022-09-14T20:17:09.206Z,14.31
2022-09-14T20:19:36.549Z,14.30
2022-09-14T20:22:03.290Z,14.27
2022-09-14T20:24:31.668Z,14.24
2022-09-14T20:27:00.592Z,14.20
2022-09-14T20:29:30.630Z,14.17
2022-09-14T20:31:58.216Z,14.14
2022-09-14T20:34:25.104Z,14.14
2022-09-14T20:36:53.313Z,14.11
2022-09-14T20:39:22.106Z,14.09
2022-09-14T20:41:49.216Z,14.08
2022-09-14T20:44:16.984Z,14.10
2022-09-14T20:46:44.605Z,14.13
2022-09-14T20:49:13.644Z,14.17
2022-09-14T20:51:41.207Z,14.17
2022-09-14T20:54:11.817Z,14.17
2022-09-14T20:56:39.114Z,14.15
2022-09-14T20:59:07.594Z,14.15
2022-09-14T21:01:36.047Z,14.13
2022-09-14T21:04:05.172Z,14.11
2022-09-14T21:06:31.990Z,14.11
2022-09-14T21:09:01.018Z,14.14
2022-09-14T21:11:28.388Z,14.15
2022-09-14T21:13:57.544Z,14.13
2022-09-14T21:16:28.250Z,14.10
2022-09-14T21:18:58.135Z,14.10
2022-09-14T21:21:26.711Z,14.08
2022-09-14T21:23:55.896Z,14.06
2022-09-14T21:26:23.217Z,14.07
2022-09-14T21:28:55.289Z,14.10
2022-09-14T21:31:22.291Z,14.12
2022-09-14T21:33:51.587Z,14.13
2022-09-14T21:36:24.306Z,14.16
2022-09-14T21:38:56.019Z,14.17
2022-09-14T21:41:25.196Z,14.17
2022-09-14T21:43:51.954Z,14.17
2022-09-14T21:46:18.955Z,14.16
2022-09-14T21:48:45.907Z,14.16
2022-09-14T21:51:32.631Z,14.17
2022-09-14T21:54:03.427Z,14.18
2022-09-14T21:56:33.102Z,14.16
2022-09-14T21:59:07.650Z,14.14
2022-09-14T22:01:34.718Z,14.13
2022-09-14T22:04:02.258Z,14.13
2022-09-14T22:06:30.322Z,14.14
2022-09-14T22:09:00.194Z,14.09
2022-09-14T22:11:32.717Z,14.02
2022-09-14T22:14:13.397Z,13.99
2022-09-14T22:16:40.867Z,13.95
2022-09-14T22:19:13.872Z,13.94
2022-09-14T22:21:40.527Z,13.89
2022-09-14T22:24:10.770Z,13.84
2022-09-14T22:26:39.639Z,13.81
2022-09-14T22:29:08.864Z,13.79
2022-09-14T22:31:39.714Z,13.85
2022-09-14T22:34:07.028Z,13.84
2022-09-14T22:36:35.465Z,13.87
2022-09-14T22:39:03.285Z,13.84
2022-09-14T22:41:30.252Z,13.82
2022-09-14T22:43:57.113Z,13.81
2022-09-14T22:46:24.755Z,13.76
2022-09-14T22:48:52.379Z,13.76
2022-09-14T22:51:22.431Z,13.79
2022-09-14T22:53:49.996Z,13.81
2022-09-14T22:56:25.311Z,13.80
2022-09-14T22:58:52.638Z,13.83
2022-09-14T23:01:22.877Z,13.83
2022-09-14T23:03:53.858Z,13.83
2022-09-14T23:06:20.480Z,13.82
2022-09-14T23:08:47.297Z,13.88
2022-09-14T23:11:13.970Z,13.88
2022-09-14T23:13:42.166Z,13.88
2022-09-14T23:16:15.291Z,13.86
2022-09-14T23:18:42.352Z,13.84
2022-09-14T23:21:09.532Z,13.83
2022-09-14T23:23:38.141Z,13.81
2022-09-14T23:26:07.028Z,13.80
2022-09-14T23:28:33.742Z,13.80
2022-09-14T23:31:00.949Z,13.80
2022-09-14T23:33:28.855Z,13.75
2022-09-14T23:35:56.139Z,13.75
2022-09-14T23:38:23.450Z,13.69
2022-09-14T23:40:50.321Z,13.68
2022-09-14T23:43:18.259Z,13.67
2022-09-14T23:45:46.288Z,13.69
2022-09-14T23:48:13.986Z,13.72
2022-09-14T23:50:40.763Z,13.72
2022-09-14T23:53:07.912Z,13.71
2022-09-14T23:55:34.602Z,13.71
2022-09-14T23:58:01.252Z,13.72
